sensor_id;sensor_type;location;lat;lon;timestamp;P1;durP1;ratioP1;P2;durP2;ratioP2
9424;SDS011;17139;52.140;11.636;2022-12-29T00:00:54;1.13;;;1.10;;
9424;SDS011;17139;52.140;11.636;2022-12-29T00:03:21;1.27;;;1.17;;
9424;SDS011;17139;52.140;11.636;2022-12-29T00:05:53;1.30;;;1.30;;
9424;SDS011;17139;52.140;11.636;2022-12-29T00:08:21;1.33;;;1.33;;
9424;SDS011;17139;52.140;11.636;2022-12-29T00:11:05;0.90;;;0.90;;
9424;SDS011;17139;52.140;11.636;2022-12-29T00:13:33;1.17;;;1.00;;
9424;SDS011;17139;52.140;11.636;2022-12-29T00:16:18;1.20;;;1.07;;
9424;SDS011;17139;52.140;11.636;2022-12-29T00:18:45;1.10;;;1.10;;
9424;SDS011;17139;52.140;11.636;2022-12-29T00:21:12;1.03;;;1.03;;
9424;SDS011;17139;52.140;11.636;2022-12-29T00:23:57;1.23;;;1.23;;
9424;SDS011;17139;52.140;11.636;2022-12-29T00:26:48;0.90;;;0.90;;
9424;SDS011;17139;52.140;11.636;2022-12-29T00:29:39;1.10;;;1.10;;
9424;SDS011;17139;52.140;11.636;2022-12-29T00:32:23;1.55;;;1.52;;
9424;SDS011;17139;52.140;11.636;2022-12-29T00:35:08;1.13;;;1.13;;
9424;SDS011;17139;52.140;11.636;2022-12-29T00:37:36;0.93;;;0.93;;
9424;SDS011;17139;52.140;11.636;2022-12-29T00:40:23;1.17;;;1.17;;
9424;SDS011;17139;52.140;11.636;2022-12-29T00:43:09;1.00;;;1.00;;
9424;SDS011;17139;52.140;11.636;2022-12-29T00:45:54;1.23;;;1.23;;
9424;SDS011;17139;52.140;11.636;2022-12-29T00:48:21;1.00;;;1.00;;
9424;SDS011;17139;52.140;11.636;2022-12-29T00:51:03;1.07;;;1.07;;
9424;SDS011;17139;52.140;11.636;2022-12-29T00:53:30;1.40;;;1.37;;
9424;SDS011;17139;52.140;11.636;2022-12-29T00:55:57;1.23;;;1.23;;
9424;SDS011;17139;52.140;11.636;2022-12-29T00:58:27;1.30;;;1.10;;
9424;SDS011;17139;52.140;11.636;2022-12-29T01:01:00;1.73;;;1.23;;
9424;SDS011;17139;52.140;11.636;2022-12-29T01:03:28;1.50;;;1.40;;
9424;SDS011;17139;52.140;11.636;2022-12-29T01:05:55;1.10;;;1.10;;
9424;SDS011;17139;52.140;11.636;2022-12-29T01:08:22;1.10;;;1.10;;
9424;SDS011;17139;52.140;11.636;2022-12-29T01:10:57;1.73;;;1.17;;
9424;SDS011;17139;52.140;11.636;2022-12-29T01:13:23;4.00;;;1.20;;
9424;SDS011;17139;52.140;11.636;2022-12-29T01:15:52;1.70;;;1.60;;
9424;SDS011;17139;52.140;11.636;2022-12-29T01:18:19;1.67;;;1.17;;
9424;SDS011;17139;52.140;11.636;2022-12-29T01:20:46;0.87;;;0.87;;
9424;SDS011;17139;52.140;11.636;2022-12-29T01:23:13;1.47;;;1.37;;
9424;SDS011;17139;52.140;11.636;2022-12-29T01:25:41;1.10;;;1.10;;
9424;SDS011;17139;52.140;11.636;2022-12-29T01:28:08;0.60;;;0.60;;
9424;SDS011;17139;52.140;11.636;2022-12-29T01:30:35;0.83;;;0.83;;
9424;SDS011;17139;52.140;11.636;2022-12-29T01:33:03;1.00;;;1.00;;
9424;SDS011;17139;52.140;11.636;2022-12-29T01:35:30;1.10;;;1.10;;
9424;SDS011;17139;52.140;11.636;2022-12-29T01:37:58;0.70;;;0.70;;
9424;SDS011;17139;52.140;11.636;2022-12-29T01:40:25;1.30;;;1.20;;
9424;SDS011;17139;52.140;11.636;2022-12-29T01:42:53;1.30;;;1.30;;
9424;SDS011;17139;52.140;11.636;2022-12-29T01:45:20;1.37;;;1.27;;
9424;SDS011;17139;52.140;11.636;2022-12-29T01:47:48;1.30;;;1.30;;
9424;SDS011;17139;52.140;11.636;2022-12-29T01:50:20;1.67;;;1.33;;
9424;SDS011;17139;52.140;11.636;2022-12-29T01:52:54;1.10;;;1.10;;
9424;SDS011;17139;52.140;11.636;2022-12-29T01:55:25;0.87;;;0.87;;
9424;SDS011;17139;52.140;11.636;2022-12-29T01:57:53;1.20;;;1.20;;
9424;SDS011;17139;52.140;11.636;2022-12-29T02:00:26;1.13;;;1.13;;
9424;SDS011;17139;52.140;11.636;2022-12-29T02:02:53;0.90;;;0.90;;
9424;SDS011;17139;52.140;11.636;2022-12-29T02:05:23;1.47;;;1.43;;
9424;SDS011;17139;52.140;11.636;2022-12-29T02:07:53;1.03;;;1.03;;
9424;SDS011;17139;52.140;11.636;2022-12-29T02:10:21;1.13;;;1.13;;
9424;SDS011;17139;52.140;11.636;2022-12-29T02:12:50;1.43;;;1.33;;
9424;SDS011;17139;52.140;11.636;2022-12-29T02:15:18;1.10;;;1.00;;
9424;SDS011;17139;52.140;11.636;2022-12-29T02:20:50;1.10;;;1.10;;
9424;SDS011;17139;52.140;11.636;2022-12-29T02:23:55;1.50;;;1.40;;
9424;SDS011;17139;52.140;11.636;2022-12-29T02:26:48;1.00;;;1.00;;
9424;SDS011;17139;52.140;11.636;2022-12-29T02:29:48;0.70;;;0.70;;
9424;SDS011;17139;52.140;11.636;2022-12-29T02:32:35;4.00;;;1.37;;
9424;SDS011;17139;52.140;11.636;2022-12-29T02:35:08;1.03;;;1.03;;
9424;SDS011;17139;52.140;11.636;2022-12-29T02:37:40;1.20;;;1.10;;
9424;SDS011;17139;52.140;11.636;2022-12-29T02:40:18;1.00;;;1.00;;
9424;SDS011;17139;52.140;11.636;2022-12-29T02:42:50;1.17;;;1.07;;
9424;SDS011;17139;52.140;11.636;2022-12-29T02:45:26;1.42;;;1.42;;
9424;SDS011;17139;52.140;11.636;2022-12-29T02:48:00;1.23;;;1.23;;
9424;SDS011;17139;52.140;11.636;2022-12-29T02:50:36;1.10;;;1.10;;
9424;SDS011;17139;52.140;11.636;2022-12-29T02:53:08;1.20;;;1.20;;
9424;SDS011;17139;52.140;11.636;2022-12-29T02:55:38;1.43;;;1.33;;
9424;SDS011;17139;52.140;11.636;2022-12-29T02:58:09;1.07;;;1.07;;
9424;SDS011;17139;52.140;11.636;2022-12-29T03:00:44;1.07;;;1.07;;
9424;SDS011;17139;52.140;11.636;2022-12-29T03:03:23;1.50;;;1.40;;
9424;SDS011;17139;52.140;11.636;2022-12-29T03:06:08;1.10;;;1.10;;
9424;SDS011;17139;52.140;11.636;2022-12-29T03:08:48;0.77;;;0.77;;
9424;SDS011;17139;52.140;11.636;2022-12-29T03:11:21;1.10;;;1.10;;
9424;SDS011;17139;52.140;11.636;2022-12-29T03:14:13;1.40;;;1.10;;
9424;SDS011;17139;52.140;11.636;2022-12-29T03:17:07;1.27;;;1.27;;
9424;SDS011;17139;52.140;11.636;2022-12-29T03:19:41;2.50;;;1.00;;
9424;SDS011;17139;52.140;11.636;2022-12-29T03:22:15;0.70;;;0.70;;
9424;SDS011;17139;52.140;11.636;2022-12-29T03:24:59;1.03;;;1.03;;
9424;SDS011;17139;52.140;11.636;2022-12-29T03:27:33;1.17;;;1.17;;
9424;SDS011;17139;52.140;11.636;2022-12-29T03:30:04;0.90;;;0.90;;
9424;SDS011;17139;52.140;11.636;2022-12-29T03:32:34;1.50;;;1.40;;
9424;SDS011;17139;52.140;11.636;2022-12-29T03:35:07;1.83;;;1.70;;
9424;SDS011;17139;52.140;11.636;2022-12-29T03:37:38;1.80;;;1.77;;
9424;SDS011;17139;52.140;11.636;2022-12-29T03:40:08;1.57;;;1.43;;
9424;SDS011;17139;52.140;11.636;2022-12-29T03:42:35;1.10;;;1.10;;
9424;SDS011;17139;52.140;11.636;2022-12-29T03:45:05;1.23;;;1.20;;
9424;SDS011;17139;52.140;11.636;2022-12-29T03:47:34;1.17;;;1.17;;
9424;SDS011;17139;52.140;11.636;2022-12-29T03:50:01;1.13;;;1.13;;
9424;SDS011;17139;52.140;11.636;2022-12-29T03:52:29;1.50;;;1.40;;
9424;SDS011;17139;52.140;11.636;2022-12-29T03:54:56;2.30;;;1.10;;
9424;SDS011;17139;52.140;11.636;2022-12-29T03:57:23;1.27;;;1.27;;
9424;SDS011;17139;52.140;11.636;2022-12-29T03:59:50;1.20;;;1.20;;
9424;SDS011;17139;52.140;11.636;2022-12-29T04:02:17;1.40;;;1.40;;
9424;SDS011;17139;52.140;11.636;2022-12-29T04:04:44;1.30;;;1.30;;
9424;SDS011;17139;52.140;11.636;2022-12-29T04:07:11;1.70;;;1.60;;
9424;SDS011;17139;52.140;11.636;2022-12-29T04:09:40;4.13;;;1.40;;
9424;SDS011;17139;52.140;11.636;2022-12-29T04:12:07;1.30;;;1.30;;
9424;SDS011;17139;52.140;11.636;2022-12-29T04:14:34;1.63;;;1.50;;
9424;SDS011;17139;52.140;11.636;2022-12-29T04:17:01;1.58;;;1.50;;
9424;SDS011;17139;52.140;11.636;2022-12-29T04:19:28;1.30;;;1.30;;
9424;SDS011;17139;52.140;11.636;2022-12-29T04:21:55;1.30;;;1.30;;
9424;SDS011;17139;52.140;11.636;2022-12-29T04:24:25;2.70;;;1.20;;
9424;SDS011;17139;52.140;11.636;2022-12-29T04:26:53;1.33;;;1.27;;
9424;SDS011;17139;52.140;11.636;2022-12-29T04:29:20;1.47;;;1.47;;
9424;SDS011;17139;52.140;11.636;2022-12-29T04:31:47;1.50;;;1.47;;
9424;SDS011;17139;52.140;11.636;2022-12-29T04:34:14;1.97;;;1.23;;
9424;SDS011;17139;52.140;11.636;2022-12-29T04:36:41;1.47;;;1.47;;
9424;SDS011;17139;52.140;11.636;2022-12-29T04:39:08;1.80;;;1.47;;
9424;SDS011;17139;52.140;11.636;2022-12-29T04:41:35;0.90;;;0.90;;
9424;SDS011;17139;52.140;11.636;2022-12-29T04:44:04;1.00;;;1.00;;
9424;SDS011;17139;52.140;11.636;2022-12-29T04:46:31;0.90;;;0.90;;
9424;SDS011;17139;52.140;11.636;2022-12-29T04:48:58;1.67;;;1.58;;
9424;SDS011;17139;52.140;11.636;2022-12-29T04:51:29;1.47;;;1.40;;
9424;SDS011;17139;52.140;11.636;2022-12-29T04:53:56;1.67;;;1.57;;
9424;SDS011;17139;52.140;11.636;2022-12-29T04:56:23;1.50;;;1.50;;
9424;SDS011;17139;52.140;11.636;2022-12-29T04:58:50;1.10;;;1.03;;
9424;SDS011;17139;52.140;11.636;2022-12-29T05:01:19;1.20;;;1.20;;
9424;SDS011;17139;52.140;11.636;2022-12-29T05:03:46;1.37;;;1.23;;
9424;SDS011;17139;52.140;11.636;2022-12-29T05:06:13;1.10;;;1.10;;
9424;SDS011;17139;52.140;11.636;2022-12-29T05:08:40;1.20;;;1.20;;
9424;SDS011;17139;52.140;11.636;2022-12-29T05:11:07;1.07;;;1.07;;
9424;SDS011;17139;52.140;11.636;2022-12-29T05:13:34;1.00;;;1.00;;
9424;SDS011;17139;52.140;11.636;2022-12-29T05:16:01;1.03;;;1.00;;
9424;SDS011;17139;52.140;11.636;2022-12-29T05:18:32;1.30;;;1.30;;
9424;SDS011;17139;52.140;11.636;2022-12-29T05:20:59;1.47;;;1.37;;
9424;SDS011;17139;52.140;11.636;2022-12-29T05:23:28;2.67;;;1.20;;
9424;SDS011;17139;52.140;11.636;2022-12-29T05:25:55;1.00;;;1.00;;
9424;SDS011;17139;52.140;11.636;2022-12-29T05:28:22;0.90;;;0.90;;
9424;SDS011;17139;52.140;11.636;2022-12-29T05:30:49;1.00;;;1.00;;
9424;SDS011;17139;52.140;11.636;2022-12-29T05:33:17;1.20;;;1.20;;
9424;SDS011;17139;52.140;11.636;2022-12-29T05:35:46;5.53;;;1.00;;
9424;SDS011;17139;52.140;11.636;2022-12-29T05:38:16;1.00;;;1.00;;
9424;SDS011;17139;52.140;11.636;2022-12-29T05:40:43;1.30;;;1.20;;
9424;SDS011;17139;52.140;11.636;2022-12-29T05:43:10;1.20;;;1.20;;
9424;SDS011;17139;52.140;11.636;2022-12-29T05:45:37;1.90;;;1.10;;
9424;SDS011;17139;52.140;11.636;2022-12-29T05:48:04;1.20;;;1.10;;
9424;SDS011;17139;52.140;11.636;2022-12-29T05:50:31;1.53;;;1.03;;
9424;SDS011;17139;52.140;11.636;2022-12-29T05:53:00;1.17;;;1.17;;
9424;SDS011;17139;52.140;11.636;2022-12-29T05:55:28;1.00;;;1.00;;
9424;SDS011;17139;52.140;11.636;2022-12-29T05:57:55;1.03;;;1.03;;
9424;SDS011;17139;52.140;11.636;2022-12-29T06:00:22;1.00;;;0.90;;
9424;SDS011;17139;52.140;11.636;2022-12-29T06:02:50;0.87;;;0.87;;
9424;SDS011;17139;52.140;11.636;2022-12-29T06:05:17;1.48;;;1.48;;
9424;SDS011;17139;52.140;11.636;2022-12-29T06:07:44;1.07;;;1.07;;
9424;SDS011;17139;52.140;11.636;2022-12-29T06:10:12;0.83;;;0.83;;
9424;SDS011;17139;52.140;11.636;2022-12-29T06:12:39;1.20;;;1.20;;
9424;SDS011;17139;52.140;11.636;2022-12-29T06:15:07;0.83;;;0.83;;
9424;SDS011;17139;52.140;11.636;2022-12-29T06:17:34;1.00;;;1.00;;
9424;SDS011;17139;52.140;11.636;2022-12-29T06:20:02;1.30;;;1.20;;
9424;SDS011;17139;52.140;11.636;2022-12-29T06:22:29;0.80;;;0.80;;
9424;SDS011;17139;52.140;11.636;2022-12-29T06:24:56;0.97;;;0.97;;
9424;SDS011;17139;52.140;11.636;2022-12-29T06:27:25;1.73;;;1.00;;
9424;SDS011;17139;52.140;11.636;2022-12-29T06:29:52;1.25;;;1.25;;
9424;SDS011;17139;52.140;11.636;2022-12-29T06:32:19;1.58;;;1.50;;
9424;SDS011;17139;52.140;11.636;2022-12-29T06:34:46;1.00;;;1.00;;
9424;SDS011;17139;52.140;11.636;2022-12-29T06:37:13;0.87;;;0.87;;
9424;SDS011;17139;52.140;11.636;2022-12-29T06:39:40;0.97;;;0.97;;
9424;SDS011;17139;52.140;11.636;2022-12-29T06:42:08;1.10;;;1.10;;
9424;SDS011;17139;52.140;11.636;2022-12-29T06:44:37;1.10;;;1.10;;
9424;SDS011;17139;52.140;11.636;2022-12-29T06:47:04;1.10;;;1.10;;
9424;SDS011;17139;52.140;11.636;2022-12-29T06:49:31;1.00;;;1.00;;
9424;SDS011;17139;52.140;11.636;2022-12-29T06:51:58;0.80;;;0.80;;
9424;SDS011;17139;52.140;11.636;2022-12-29T06:54:25;1.00;;;1.00;;
9424;SDS011;17139;52.140;11.636;2022-12-29T06:56:52;1.35;;;1.30;;
9424;SDS011;17139;52.140;11.636;2022-12-29T06:59:19;0.90;;;0.90;;
9424;SDS011;17139;52.140;11.636;2022-12-29T07:01:48;1.30;;;1.30;;
9424;SDS011;17139;52.140;11.636;2022-12-29T07:04:15;1.20;;;1.10;;
9424;SDS011;17139;52.140;11.636;2022-12-29T07:06:43;0.87;;;0.87;;
9424;SDS011;17139;52.140;11.636;2022-12-29T07:09:10;1.00;;;0.97;;
9424;SDS011;17139;52.140;11.636;2022-12-29T07:11:37;0.80;;;0.80;;
9424;SDS011;17139;52.140;11.636;2022-12-29T07:14:04;0.90;;;0.90;;
9424;SDS011;17139;52.140;11.636;2022-12-29T07:16:31;0.90;;;0.90;;
9424;SDS011;17139;52.140;11.636;2022-12-29T07:19:00;0.80;;;0.80;;
9424;SDS011;17139;52.140;11.636;2022-12-29T07:21:27;0.73;;;0.73;;
9424;SDS011;17139;52.140;11.636;2022-12-29T07:23:54;0.77;;;0.77;;
9424;SDS011;17139;52.140;11.636;2022-12-29T07:26:21;0.90;;;0.90;;
9424;SDS011;17139;52.140;11.636;2022-12-29T07:28:49;0.60;;;0.60;;
9424;SDS011;17139;52.140;11.636;2022-12-29T07:31:16;1.00;;;0.83;;
9424;SDS011;17139;52.140;11.636;2022-12-29T07:33:44;1.10;;;1.10;;
9424;SDS011;17139;52.140;11.636;2022-12-29T07:36:14;1.20;;;1.20;;
9424;SDS011;17139;52.140;11.636;2022-12-29T07:38:42;0.90;;;0.90;;
9424;SDS011;17139;52.140;11.636;2022-12-29T07:41:10;0.93;;;0.93;;
9424;SDS011;17139;52.140;11.636;2022-12-29T07:43:37;0.70;;;0.70;;
9424;SDS011;17139;52.140;11.636;2022-12-29T07:46:04;0.80;;;0.80;;
9424;SDS011;17139;52.140;11.636;2022-12-29T07:48:31;0.70;;;0.70;;
9424;SDS011;17139;52.140;11.636;2022-12-29T07:50:58;1.47;;;0.90;;
9424;SDS011;17139;52.140;11.636;2022-12-29T07:53:27;0.80;;;0.80;;
9424;SDS011;17139;52.140;11.636;2022-12-29T07:55:54;1.07;;;1.07;;
9424;SDS011;17139;52.140;11.636;2022-12-29T07:58:21;1.03;;;0.93;;
9424;SDS011;17139;52.140;11.636;2022-12-29T08:00:52;0.83;;;0.83;;
9424;SDS011;17139;52.140;11.636;2022-12-29T08:03:19;0.83;;;0.83;;
9424;SDS011;17139;52.140;11.636;2022-12-29T08:05:46;3.50;;;0.70;;
9424;SDS011;17139;52.140;11.636;2022-12-29T08:08:14;0.87;;;0.87;;
9424;SDS011;17139;52.140;11.636;2022-12-29T08:10:42;0.80;;;0.80;;
9424;SDS011;17139;52.140;11.636;2022-12-29T08:13:09;1.00;;;1.00;;
9424;SDS011;17139;52.140;11.636;2022-12-29T08:15:37;0.90;;;0.90;;
9424;SDS011;17139;52.140;11.636;2022-12-29T08:18:04;1.03;;;1.03;;
9424;SDS011;17139;52.140;11.636;2022-12-29T08:20:32;1.00;;;1.00;;
9424;SDS011;17139;52.140;11.636;2022-12-29T08:22:59;0.80;;;0.80;;
9424;SDS011;17139;52.140;11.636;2022-12-29T08:25:26;0.70;;;0.70;;
9424;SDS011;17139;52.140;11.636;2022-12-29T08:27:54;0.83;;;0.83;;
9424;SDS011;17139;52.140;11.636;2022-12-29T08:30:21;1.00;;;1.00;;
9424;SDS011;17139;52.140;11.636;2022-12-29T08:32:48;1.30;;;1.00;;
9424;SDS011;17139;52.140;11.636;2022-12-29T08:35:15;0.70;;;0.70;;
9424;SDS011;17139;52.140;11.636;2022-12-29T08:37:42;0.83;;;0.83;;
9424;SDS011;17139;52.140;11.636;2022-12-29T08:40:10;0.90;;;0.90;;
9424;SDS011;17139;52.140;11.636;2022-12-29T08:42:37;0.77;;;0.77;;
9424;SDS011;17139;52.140;11.636;2022-12-29T08:45:06;0.50;;;0.50;;
9424;SDS011;17139;52.140;11.636;2022-12-29T08:47:34;1.10;;;0.90;;
9424;SDS011;17139;52.140;11.636;2022-12-29T08:50:02;0.70;;;0.70;;
9424;SDS011;17139;52.140;11.636;2022-12-29T08:52:32;0.70;;;0.70;;
9424;SDS011;17139;52.140;11.636;2022-12-29T08:54:59;1.40;;;0.70;;
9424;SDS011;17139;52.140;11.636;2022-12-29T08:57:26;0.37;;;0.37;;
9424;SDS011;17139;52.140;11.636;2022-12-29T08:59:55;0.80;;;0.80;;
9424;SDS011;17139;52.140;11.636;2022-12-29T09:02:24;0.85;;;0.68;;
9424;SDS011;17139;52.140;11.636;2022-12-29T09:04:51;0.70;;;0.70;;
9424;SDS011;17139;52.140;11.636;2022-12-29T09:07:18;0.60;;;0.60;;
9424;SDS011;17139;52.140;11.636;2022-12-29T09:09:45;0.68;;;0.68;;
9424;SDS011;17139;52.140;11.636;2022-12-29T09:12:12;0.60;;;0.60;;
9424;SDS011;17139;52.140;11.636;2022-12-29T09:14:39;0.82;;;0.82;;
9424;SDS011;17139;52.140;11.636;2022-12-29T09:17:07;0.80;;;0.80;;
9424;SDS011;17139;52.140;11.636;2022-12-29T09:19:54;2.15;;;0.70;;
9424;SDS011;17139;52.140;11.636;2022-12-29T09:22:21;0.60;;;0.60;;
9424;SDS011;17139;52.140;11.636;2022-12-29T09:24:48;0.68;;;0.68;;
9424;SDS011;17139;52.140;11.636;2022-12-29T09:27:16;0.75;;;0.75;;
9424;SDS011;17139;52.140;11.636;2022-12-29T09:29:43;0.80;;;0.80;;
9424;SDS011;17139;52.140;11.636;2022-12-29T09:32:10;0.50;;;0.50;;
9424;SDS011;17139;52.140;11.636;2022-12-29T09:34:38;1.00;;;1.00;;
9424;SDS011;17139;52.140;11.636;2022-12-29T09:37:06;1.42;;;0.95;;
9424;SDS011;17139;52.140;11.636;2022-12-29T09:39:33;0.70;;;0.70;;
9424;SDS011;17139;52.140;11.636;2022-12-29T09:42:01;0.75;;;0.75;;
9424;SDS011;17139;52.140;11.636;2022-12-29T09:44:41;0.70;;;0.70;;
9424;SDS011;17139;52.140;11.636;2022-12-29T09:47:18;1.13;;;0.95;;
9424;SDS011;17139;52.140;11.636;2022-12-29T09:49:47;0.80;;;0.80;;
9424;SDS011;17139;52.140;11.636;2022-12-29T09:52:22;0.68;;;0.68;;
9424;SDS011;17139;52.140;11.636;2022-12-29T09:54:55;0.80;;;0.80;;
9424;SDS011;17139;52.140;11.636;2022-12-29T09:57:26;0.90;;;0.90;;
9424;SDS011;17139;52.140;11.636;2022-12-29T09:59:57;0.77;;;0.75;;
9424;SDS011;17139;52.140;11.636;2022-12-29T10:02:34;0.70;;;0.70;;
9424;SDS011;17139;52.140;11.636;2022-12-29T10:05:12;0.52;;;0.52;;
9424;SDS011;17139;52.140;11.636;2022-12-29T10:07:48;0.40;;;0.40;;
9424;SDS011;17139;52.140;11.636;2022-12-29T10:10:27;0.50;;;0.50;;
9424;SDS011;17139;52.140;11.636;2022-12-29T10:13:05;0.50;;;0.50;;
9424;SDS011;17139;52.140;11.636;2022-12-29T10:15:47;1.55;;;0.73;;
9424;SDS011;17139;52.140;11.636;2022-12-29T10:18:32;0.40;;;0.40;;
9424;SDS011;17139;52.140;11.636;2022-12-29T10:21:17;0.35;;;0.35;;
9424;SDS011;17139;52.140;11.636;2022-12-29T10:23:54;1.85;;;0.70;;
9424;SDS011;17139;52.140;11.636;2022-12-29T10:26:23;0.60;;;0.57;;
9424;SDS011;17139;52.140;11.636;2022-12-29T10:28:54;0.40;;;0.40;;
9424;SDS011;17139;52.140;11.636;2022-12-29T10:31:25;0.50;;;0.50;;
9424;SDS011;17139;52.140;11.636;2022-12-29T10:33:59;2.08;;;0.52;;
9424;SDS011;17139;52.140;11.636;2022-12-29T10:36:33;0.60;;;0.60;;
9424;SDS011;17139;52.140;11.636;2022-12-29T10:39:06;0.50;;;0.50;;
9424;SDS011;17139;52.140;11.636;2022-12-29T10:41:43;0.30;;;0.30;;
9424;SDS011;17139;52.140;11.636;2022-12-29T10:44:14;0.90;;;0.60;;
9424;SDS011;17139;52.140;11.636;2022-12-29T10:46:44;0.30;;;0.30;;
9424;SDS011;17139;52.140;11.636;2022-12-29T10:49:18;1.40;;;0.77;;
9424;SDS011;17139;52.140;11.636;2022-12-29T10:51:46;0.40;;;0.40;;
9424;SDS011;17139;52.140;11.636;2022-12-29T10:54:20;0.52;;;0.52;;
9424;SDS011;17139;52.140;11.636;2022-12-29T10:56:53;0.65;;;0.50;;
9424;SDS011;17139;52.140;11.636;2022-12-29T10:59:24;0.35;;;0.35;;
9424;SDS011;17139;52.140;11.636;2022-12-29T11:01:57;0.45;;;0.45;;
9424;SDS011;17139;52.140;11.636;2022-12-29T11:04:38;0.50;;;0.50;;
9424;SDS011;17139;52.140;11.636;2022-12-29T11:07:11;0.50;;;0.50;;
9424;SDS011;17139;52.140;11.636;2022-12-29T11:09:39;0.47;;;0.47;;
9424;SDS011;17139;52.140;11.636;2022-12-29T11:12:20;0.57;;;0.50;;
9424;SDS011;17139;52.140;11.636;2022-12-29T11:17:48;0.43;;;0.43;;
9424;SDS011;17139;52.140;11.636;2022-12-29T11:20:28;0.20;;;0.20;;
9424;SDS011;17139;52.140;11.636;2022-12-29T11:22:58;0.40;;;0.40;;
9424;SDS011;17139;52.140;11.636;2022-12-29T11:25:27;0.38;;;0.38;;
9424;SDS011;17139;52.140;11.636;2022-12-29T11:27:55;0.43;;;0.43;;
9424;SDS011;17139;52.140;11.636;2022-12-29T11:30:23;0.60;;;0.60;;
9424;SDS011;17139;52.140;11.636;2022-12-29T11:32:53;0.40;;;0.40;;
9424;SDS011;17139;52.140;11.636;2022-12-29T11:35:31;0.60;;;0.50;;
9424;SDS011;17139;52.140;11.636;2022-12-29T11:38:01;0.82;;;0.50;;
9424;SDS011;17139;52.140;11.636;2022-12-29T11:40:30;0.50;;;0.50;;
9424;SDS011;17139;52.140;11.636;2022-12-29T11:43:00;1.13;;;0.50;;
9424;SDS011;17139;52.140;11.636;2022-12-29T11:45:29;1.50;;;0.40;;
9424;SDS011;17139;52.140;11.636;2022-12-29T11:47:59;0.60;;;0.60;;
9424;SDS011;17139;52.140;11.636;2022-12-29T11:50:33;0.70;;;0.70;;
9424;SDS011;17139;52.140;11.636;2022-12-29T11:53:05;0.70;;;0.50;;
9424;SDS011;17139;52.140;11.636;2022-12-29T11:55:37;0.60;;;0.60;;
9424;SDS011;17139;52.140;11.636;2022-12-29T11:58:04;0.40;;;0.40;;
9424;SDS011;17139;52.140;11.636;2022-12-29T12:00:34;0.20;;;0.20;;
9424;SDS011;17139;52.140;11.636;2022-12-29T12:03:06;0.63;;;0.63;;
9424;SDS011;17139;52.140;11.636;2022-12-29T12:05:43;0.63;;;0.63;;
9424;SDS011;17139;52.140;11.636;2022-12-29T12:08:16;0.47;;;0.47;;
9424;SDS011;17139;52.140;11.636;2022-12-29T12:10:50;0.53;;;0.53;;
9424;SDS011;17139;52.140;11.636;2022-12-29T12:13:23;0.82;;;0.70;;
9424;SDS011;17139;52.140;11.636;2022-12-29T12:15:57;0.40;;;0.40;;
9424;SDS011;17139;52.140;11.636;2022-12-29T12:18:34;0.30;;;0.30;;
9424;SDS011;17139;52.140;11.636;2022-12-29T12:21:09;0.40;;;0.40;;
9424;SDS011;17139;52.140;11.636;2022-12-29T12:23:44;0.60;;;0.60;;
9424;SDS011;17139;52.140;11.636;2022-12-29T12:26:29;0.60;;;0.60;;
9424;SDS011;17139;52.140;11.636;2022-12-29T12:29:04;0.47;;;0.47;;
9424;SDS011;17139;52.140;11.636;2022-12-29T12:31:41;0.50;;;0.50;;
9424;SDS011;17139;52.140;11.636;2022-12-29T12:34:13;0.40;;;0.40;;
9424;SDS011;17139;52.140;11.636;2022-12-29T12:39:40;0.70;;;0.70;;
9424;SDS011;17139;52.140;11.636;2022-12-29T12:42:24;0.53;;;0.53;;
9424;SDS011;17139;52.140;11.636;2022-12-29T12:45:07;0.45;;;0.45;;
9424;SDS011;17139;52.140;11.636;2022-12-29T12:47:55;0.63;;;0.63;;
9424;SDS011;17139;52.140;11.636;2022-12-29T12:50:35;1.00;;;0.75;;
9424;SDS011;17139;52.140;11.636;2022-12-29T12:53:16;1.95;;;0.70;;
9424;SDS011;17139;52.140;11.636;2022-12-29T12:55:56;0.80;;;0.80;;
9424;SDS011;17139;52.140;11.636;2022-12-29T12:58:35;0.50;;;0.50;;
9424;SDS011;17139;52.140;11.636;2022-12-29T13:01:16;0.63;;;0.63;;
9424;SDS011;17139;52.140;11.636;2022-12-29T13:03:57;0.77;;;0.50;;
9424;SDS011;17139;52.140;11.636;2022-12-29T13:06:35;0.60;;;0.60;;
9424;SDS011;17139;52.140;11.636;2022-12-29T13:09:21;0.47;;;0.47;;
9424;SDS011;17139;52.140;11.636;2022-12-29T13:12:07;0.50;;;0.50;;
9424;SDS011;17139;52.140;11.636;2022-12-29T13:14:48;0.43;;;0.43;;
9424;SDS011;17139;52.140;11.636;2022-12-29T13:17:25;0.60;;;0.60;;
9424;SDS011;17139;52.140;11.636;2022-12-29T13:19:58;0.47;;;0.47;;
9424;SDS011;17139;52.140;11.636;2022-12-29T13:22:36;0.40;;;0.40;;
9424;SDS011;17139;52.140;11.636;2022-12-29T13:25:14;0.50;;;0.50;;
9424;SDS011;17139;52.140;11.636;2022-12-29T13:27:51;0.52;;;0.52;;
9424;SDS011;17139;52.140;11.636;2022-12-29T13:30:26;0.50;;;0.50;;
9424;SDS011;17139;52.140;11.636;2022-12-29T13:32:59;0.40;;;0.40;;
9424;SDS011;17139;52.140;11.636;2022-12-29T13:35:37;0.70;;;0.70;;
9424;SDS011;17139;52.140;11.636;2022-12-29T13:38:19;0.70;;;0.60;;
9424;SDS011;17139;52.140;11.636;2022-12-29T13:40:52;0.70;;;0.63;;
9424;SDS011;17139;52.140;11.636;2022-12-29T13:43:21;1.10;;;0.60;;
9424;SDS011;17139;52.140;11.636;2022-12-29T13:45:55;0.75;;;0.50;;
9424;SDS011;17139;52.140;11.636;2022-12-29T13:48:28;0.65;;;0.65;;
9424;SDS011;17139;52.140;11.636;2022-12-29T13:51:02;0.40;;;0.40;;
9424;SDS011;17139;52.140;11.636;2022-12-29T13:53:32;0.45;;;0.45;;
9424;SDS011;17139;52.140;11.636;2022-12-29T13:56:06;0.82;;;0.82;;
9424;SDS011;17139;52.140;11.636;2022-12-29T13:58:39;0.50;;;0.50;;
9424;SDS011;17139;52.140;11.636;2022-12-29T14:01:13;0.57;;;0.57;;
9424;SDS011;17139;52.140;11.636;2022-12-29T14:03:47;3.15;;;0.52;;
9424;SDS011;17139;52.140;11.636;2022-12-29T14:06:19;0.50;;;0.50;;
9424;SDS011;17139;52.140;11.636;2022-12-29T14:08:49;0.43;;;0.43;;
9424;SDS011;17139;52.140;11.636;2022-12-29T14:11:20;0.88;;;0.88;;
9424;SDS011;17139;52.140;11.636;2022-12-29T14:13:50;1.38;;;0.82;;
9424;SDS011;17139;52.140;11.636;2022-12-29T14:16:30;0.60;;;0.60;;
9424;SDS011;17139;52.140;11.636;2022-12-29T14:19:09;0.50;;;0.50;;
9424;SDS011;17139;52.140;11.636;2022-12-29T14:21:39;0.63;;;0.63;;
9424;SDS011;17139;52.140;11.636;2022-12-29T14:24:26;1.65;;;0.52;;
9424;SDS011;17139;52.140;11.636;2022-12-29T14:33:15;0.45;;;0.45;;
9424;SDS011;17139;52.140;11.636;2022-12-29T14:35:43;1.13;;;0.52;;
9424;SDS011;17139;52.140;11.636;2022-12-29T14:41:17;0.90;;;0.90;;
9424;SDS011;17139;52.140;11.636;2022-12-29T14:43:54;1.15;;;0.68;;
9424;SDS011;17139;52.140;11.636;2022-12-29T14:46:42;0.60;;;0.60;;
9424;SDS011;17139;52.140;11.636;2022-12-29T14:49:15;1.45;;;0.85;;
9424;SDS011;17139;52.140;11.636;2022-12-29T14:51:45;2.22;;;0.70;;
9424;SDS011;17139;52.140;11.636;2022-12-29T14:57:13;2.20;;;0.80;;
9424;SDS011;17139;52.140;11.636;2022-12-29T14:59:56;0.40;;;0.40;;
9424;SDS011;17139;52.140;11.636;2022-12-29T15:02:34;0.70;;;0.70;;
9424;SDS011;17139;52.140;11.636;2022-12-29T15:05:14;0.55;;;0.55;;
9424;SDS011;17139;52.140;11.636;2022-12-29T15:07:54;0.70;;;0.70;;
9424;SDS011;17139;52.140;11.636;2022-12-29T15:10:26;0.63;;;0.50;;
9424;SDS011;17139;52.140;11.636;2022-12-29T15:13:02;0.68;;;0.50;;
9424;SDS011;17139;52.140;11.636;2022-12-29T15:15:35;0.40;;;0.40;;
9424;SDS011;17139;52.140;11.636;2022-12-29T15:20:57;2.50;;;0.80;;
9424;SDS011;17139;52.140;11.636;2022-12-29T15:23:26;0.50;;;0.50;;
9424;SDS011;17139;52.140;11.636;2022-12-29T15:25:55;1.70;;;0.80;;
9424;SDS011;17139;52.140;11.636;2022-12-29T15:28:25;1.77;;;0.63;;
9424;SDS011;17139;52.140;11.636;2022-12-29T15:31:06;0.45;;;0.45;;
9424;SDS011;17139;52.140;11.636;2022-12-29T15:33:39;0.50;;;0.50;;
9424;SDS011;17139;52.140;11.636;2022-12-29T15:36:11;2.50;;;0.82;;
9424;SDS011;17139;52.140;11.636;2022-12-29T15:38:39;0.60;;;0.60;;